createdAt,value
2022-07-27T00:01:04.655Z,19.19
2022-07-27T00:03:32.588Z,19.31
2022-07-27T00:06:00.525Z,19.23
2022-07-27T00:08:28.601Z,19.35
2022-07-27T00:10:57.210Z,19.33
2022-07-27T00:13:27.003Z,19.37
2022-07-27T00:15:55.545Z,19.17
2022-07-27T00:18:23.468Z,19.48
2022-07-27T00:20:51.351Z,19.41
2022-07-27T00:23:19.197Z,19.27
2022-07-27T00:25:47.007Z,19.41
2022-07-27T00:28:15.051Z,19.12
2022-07-27T00:30:44.320Z,19.28
2022-07-27T00:33:16.988Z,19.31
2022-07-27T00:35:45.871Z,19.24
2022-07-27T00:38:16.541Z,19.07
2022-07-27T00:40:45.116Z,19.18
2022-07-27T00:43:13.679Z,19.19
2022-07-27T00:45:41.695Z,19.19
2022-07-27T00:48:10.937Z,19.16
2022-07-27T00:50:41.856Z,19.04
2022-07-27T00:53:10.073Z,19.03
2022-07-27T00:55:39.448Z,19.00
2022-07-27T00:58:08.755Z,19.00
2022-07-27T01:00:38.477Z,19.00
2022-07-27T01:03:08.768Z,18.91
2022-07-27T01:05:43.059Z,18.94
2022-07-27T01:08:13.890Z,18.78
2022-07-27T01:10:43.407Z,18.88
2022-07-27T01:13:12.362Z,18.91
2022-07-27T01:15:41.546Z,18.90
2022-07-27T01:18:13.003Z,18.89
2022-07-27T01:20:42.974Z,18.93
2022-07-27T01:23:12.227Z,18.69
2022-07-27T01:25:42.558Z,18.78
2022-07-27T01:28:10.834Z,18.81
2022-07-27T01:30:38.737Z,18.70
2022-07-27T01:33:07.912Z,18.75
2022-07-27T01:35:36.516Z,18.72
2022-07-27T01:38:04.985Z,18.64
2022-07-27T01:40:36.708Z,18.64
2022-07-27T01:43:05.679Z,18.51
2022-07-27T01:45:33.705Z,18.49
2022-07-27T01:48:01.677Z,18.64
2022-07-27T01:50:29.938Z,18.57
2022-07-27T01:52:57.971Z,18.55
2022-07-27T01:55:25.906Z,18.55
2022-07-27T01:57:55.223Z,18.59
2022-07-27T02:00:23.280Z,18.60
2022-07-27T02:02:51.177Z,18.50
2022-07-27T02:05:19.410Z,18.67
2022-07-27T02:07:47.491Z,18.67
2022-07-27T02:10:15.349Z,18.54
2022-07-27T02:12:42.803Z,18.59
2022-07-27T02:15:14.905Z,18.21
2022-07-27T02:17:45.393Z,18.41
2022-07-27T02:20:14.753Z,18.25
2022-07-27T02:22:42.729Z,18.23
2022-07-27T02:25:11.961Z,18.03
2022-07-27T02:27:40.563Z,18.25
2022-07-27T02:30:10.120Z,18.22
2022-07-27T02:32:40.500Z,18.11
2022-07-27T02:35:19.769Z,18.22
2022-07-27T02:37:48.983Z,18.18
2022-07-27T02:40:18.509Z,18.03
2022-07-27T02:42:48.026Z,18.15
2022-07-27T02:45:16.674Z,18.10
2022-07-27T02:47:46.123Z,18.05
2022-07-27T02:50:14.222Z,18.08
2022-07-27T02:52:42.312Z,18.09
2022-07-27T02:55:11.712Z,17.98
2022-07-27T02:57:41.076Z,18.05
2022-07-27T03:00:12.372Z,17.98
2022-07-27T03:02:40.445Z,18.06
2022-07-27T03:05:12.537Z,17.97
2022-07-27T03:07:40.503Z,17.94
2022-07-27T03:10:09.243Z,17.99
2022-07-27T03:12:37.125Z,17.93
2022-07-27T03:15:05.774Z,18.00
2022-07-27T03:17:34.042Z,17.99
2022-07-27T03:20:02.021Z,17.93
2022-07-27T03:22:32.677Z,17.89
2022-07-27T03:25:00.809Z,17.88
2022-07-27T03:27:29.348Z,17.90
2022-07-27T03:29:57.370Z,17.85
2022-07-27T03:32:25.528Z,17.84
2022-07-27T03:34:53.830Z,17.89
2022-07-27T03:37:21.797Z,17.98
2022-07-27T03:39:51.071Z,17.86
2022-07-27T03:42:18.932Z,17.84
2022-07-27T03:44:46.791Z,17.78
2022-07-27T03:47:14.859Z,17.77
2022-07-27T03:49:42.676Z,17.80
2022-07-27T03:52:14.314Z,17.71
2022-07-27T03:54:45.484Z,17.82
2022-07-27T03:57:15.164Z,17.77
2022-07-27T03:59:43.256Z,17.74
2022-07-27T04:02:11.197Z,17.77
2022-07-27T04:04:39.187Z,17.72
2022-07-27T04:07:07.037Z,17.77
2022-07-27T04:09:35.995Z,17.78
2022-07-27T04:12:03.846Z,17.65
2022-07-27T04:14:33.091Z,17.60
2022-07-27T04:17:01.072Z,17.70
2022-07-27T04:19:29.106Z,17.75
2022-07-27T04:21:57.162Z,17.75
2022-07-27T04:24:25.029Z,17.76
2022-07-27T04:26:52.887Z,17.76
2022-07-27T04:29:21.509Z,17.73
2022-07-27T04:31:51.126Z,17.73
2022-07-27T04:34:20.572Z,17.42
2022-07-27T04:36:49.869Z,17.47
2022-07-27T04:39:17.711Z,17.60
2022-07-27T04:41:46.978Z,17.60
2022-07-27T04:44:14.877Z,17.56
2022-07-27T04:46:42.766Z,17.47
2022-07-27T04:49:12.364Z,17.46
2022-07-27T04:51:43.885Z,17.60
2022-07-27T04:54:12.489Z,17.63
2022-07-27T04:56:40.491Z,17.70
2022-07-27T04:59:08.539Z,17.58
2022-07-27T05:01:37.081Z,17.66
2022-07-27T05:04:05.699Z,17.79
2022-07-27T05:06:34.968Z,17.88
2022-07-27T05:09:02.920Z,17.62
2022-07-27T05:11:30.837Z,17.79
2022-07-27T05:13:58.983Z,17.74
2022-07-27T05:16:29.114Z,17.90
2022-07-27T05:18:57.580Z,17.53
2022-07-27T05:21:26.096Z,17.96
2022-07-27T05:23:55.714Z,17.85
2022-07-27T05:26:23.995Z,17.95
2022-07-27T05:28:51.905Z,18.03
2022-07-27T05:31:19.850Z,17.93
2022-07-27T05:33:49.303Z,17.95
2022-07-27T05:36:18.877Z,18.02
2022-07-27T05:38:46.764Z,18.10
2022-07-27T05:41:16.242Z,18.21
2022-07-27T05:43:44.555Z,18.21
2022-07-27T05:46:12.526Z,18.36
2022-07-27T05:48:40.582Z,18.31
2022-07-27T05:51:09.523Z,18.29
2022-07-27T05:53:37.467Z,18.34
2022-07-27T05:56:07.827Z,18.32
2022-07-27T05:58:37.145Z,18.46
2022-07-27T06:01:05.231Z,18.62
2022-07-27T06:03:33.549Z,18.43
2022-07-27T06:06:19.496Z,18.27
2022-07-27T06:08:47.349Z,18.28
2022-07-27T06:11:15.454Z,18.11
2022-07-27T06:13:44.794Z,18.61
2022-07-27T06:16:12.747Z,18.36
2022-07-27T06:18:42.406Z,18.74
2022-07-27T06:21:10.682Z,18.89
2022-07-27T06:23:38.686Z,19.33
2022-07-27T06:26:07.434Z,19.40
2022-07-27T06:28:35.292Z,19.74
2022-07-27T06:31:04.637Z,19.98
2022-07-27T06:33:35.247Z,20.47
2022-07-27T06:36:03.414Z,20.60
2022-07-27T06:38:31.451Z,20.54
2022-07-27T06:40:59.534Z,20.44
2022-07-27T06:43:29.482Z,20.22
2022-07-27T06:45:59.372Z,19.92
2022-07-27T06:48:28.739Z,20.16
2022-07-27T06:50:57.152Z,20.51
2022-07-27T06:53:25.519Z,20.33
2022-07-27T06:55:53.640Z,20.22
2022-07-27T06:58:23.639Z,20.40
2022-07-27T07:00:51.614Z,20.33
2022-07-27T07:03:19.722Z,20.24
2022-07-27T07:05:49.002Z,20.13
2022-07-27T07:08:16.945Z,20.39
2022-07-27T07:10:46.288Z,20.01
2022-07-27T07:13:14.492Z,20.06
2022-07-27T07:15:43.851Z,20.19
2022-07-27T07:18:12.753Z,20.08
2022-07-27T07:20:41.168Z,19.66
2022-07-27T07:23:11.028Z,19.82
2022-07-27T07:25:39.596Z,19.82
2022-07-27T07:28:08.254Z,19.97
2022-07-27T07:30:36.777Z,19.97
2022-07-27T07:33:05.147Z,19.96
2022-07-27T07:35:33.821Z,19.93
2022-07-27T07:38:01.858Z,20.03
2022-07-27T07:40:46.500Z,20.19
2022-07-27T07:43:15.166Z,19.96
2022-07-27T07:45:50.543Z,19.73
2022-07-27T07:48:19.434Z,20.06
2022-07-27T07:50:51.300Z,20.17
2022-07-27T07:53:20.576Z,20.18
2022-07-27T07:55:49.993Z,20.29
2022-07-27T07:58:18.056Z,20.35
2022-07-27T08:00:45.977Z,20.31
2022-07-27T08:03:13.949Z,20.50
2022-07-27T08:05:42.028Z,20.52
2022-07-27T08:08:10.162Z,20.26
2022-07-27T08:10:38.099Z,20.22
2022-07-27T08:13:07.423Z,20.32
2022-07-27T08:15:36.488Z,20.56
2022-07-27T08:18:05.712Z,20.85
2022-07-27T08:20:33.963Z,20.86
2022-07-27T08:23:02.385Z,20.89
2022-07-27T08:25:30.812Z,21.14
2022-07-27T08:27:58.919Z,21.38
2022-07-27T08:30:28.523Z,21.20
2022-07-27T08:33:01.190Z,20.88
2022-07-27T08:35:30.409Z,20.93
2022-07-27T08:37:59.294Z,21.07
2022-07-27T08:40:39.656Z,21.28
2022-07-27T08:43:09.780Z,21.33
2022-07-27T08:45:41.519Z,21.23
2022-07-27T08:48:14.467Z,21.50
2022-07-27T08:50:42.942Z,21.56
2022-07-27T08:53:13.767Z,21.54
2022-07-27T08:55:44.032Z,21.49
2022-07-27T08:58:14.161Z,21.51
2022-07-27T09:00:45.084Z,21.39
2022-07-27T09:03:19.120Z,21.34
2022-07-27T09:05:50.145Z,21.66
2022-07-27T09:08:22.500Z,21.64
2022-07-27T09:10:50.999Z,21.54
2022-07-27T09:13:22.459Z,21.57
2022-07-27T09:18:42.022Z,21.50
2022-07-27T09:21:16.393Z,21.58
2022-07-27T09:23:48.073Z,21.26
2022-07-27T09:26:35.144Z,21.56
2022-07-27T09:29:05.536Z,21.45
2022-07-27T09:31:42.633Z,21.43
2022-07-27T09:34:11.699Z,21.40
2022-07-27T09:36:53.295Z,21.56
2022-07-27T09:39:22.649Z,21.58
2022-07-27T09:41:53.129Z,21.45
2022-07-27T09:44:43.267Z,21.71
2022-07-27T09:47:26.885Z,21.82
2022-07-27T09:49:57.171Z,22.02
2022-07-27T09:52:30.793Z,22.36
2022-07-27T09:55:05.249Z,22.61
2022-07-27T09:57:52.156Z,22.36
2022-07-27T10:00:20.767Z,22.36
2022-07-27T10:02:51.109Z,22.20
2022-07-27T10:05:34.370Z,21.73
2022-07-27T10:08:08.664Z,21.71
2022-07-27T10:10:37.933Z,22.11
2022-07-27T10:13:06.630Z,22.47
2022-07-27T10:15:34.889Z,22.81
2022-07-27T10:18:10.048Z,22.79
2022-07-27T10:20:42.368Z,22.61
2022-07-27T10:23:27.201Z,22.51
2022-07-27T10:26:21.622Z,22.90
2022-07-27T10:28:51.183Z,23.48
2022-07-27T10:31:20.993Z,24.05
2022-07-27T10:33:52.251Z,24.36
2022-07-27T10:36:47.750Z,23.53
2022-07-27T10:39:30.115Z,23.37
2022-07-27T10:42:19.545Z,23.69
2022-07-27T10:45:12.750Z,24.14
2022-07-27T10:47:44.615Z,24.42
2022-07-27T10:50:30.801Z,24.02
2022-07-27T10:53:17.760Z,23.27
2022-07-27T10:55:47.604Z,23.16
2022-07-27T10:58:50.254Z,23.44
2022-07-27T11:01:20.445Z,23.73
2022-07-27T11:03:52.641Z,23.96
2022-07-27T11:06:37.811Z,23.97
2022-07-27T11:12:05.601Z,23.06
2022-07-27T11:14:45.095Z,23.34
2022-07-27T11:20:03.881Z,23.73
2022-07-27T11:25:24.631Z,23.82
2022-07-27T11:27:53.261Z,24.24
2022-07-27T11:30:26.556Z,24.23
2022-07-27T11:32:55.212Z,24.00
2022-07-27T11:35:24.070Z,24.23
2022-07-27T11:38:02.267Z,23.86
2022-07-27T11:41:10.452Z,24.08
2022-07-27T11:43:38.466Z,24.53
2022-07-27T11:46:18.638Z,24.53
2022-07-27T11:49:08.768Z,24.72
2022-07-27T11:51:40.090Z,24.91
2022-07-27T11:54:11.347Z,25.75
2022-07-27T11:56:43.281Z,25.96
2022-07-27T11:59:25.374Z,26.20
2022-07-27T12:01:55.146Z,26.24
2022-07-27T12:04:25.804Z,26.81
2022-07-27T12:07:05.152Z,27.23
2022-07-27T12:09:38.720Z,26.66
2022-07-27T12:12:13.965Z,26.26
2022-07-27T12:14:44.127Z,26.79
2022-07-27T12:17:31.138Z,26.11
2022-07-27T12:20:01.580Z,26.06
2022-07-27T12:22:32.137Z,26.07
2022-07-27T12:25:05.643Z,26.04
2022-07-27T12:27:39.093Z,25.63
2022-07-27T12:30:11.254Z,25.41
2022-07-27T12:32:42.802Z,25.78
2022-07-27T12:35:25.276Z,25.69
2022-07-27T12:38:00.964Z,25.37
2022-07-27T12:40:31.419Z,25.90
2022-07-27T12:43:01.385Z,26.22
2022-07-27T12:45:34.219Z,26.04
2022-07-27T12:48:06.494Z,26.15
2022-07-27T12:50:34.476Z,25.97
2022-07-27T12:53:02.750Z,26.19
2022-07-27T12:55:32.062Z,26.52
2022-07-27T12:58:00.130Z,26.75
2022-07-27T13:00:33.923Z,26.49
2022-07-27T13:03:04.277Z,27.19
2022-07-27T13:05:32.940Z,27.05
2022-07-27T13:08:01.131Z,26.87
2022-07-27T13:10:28.975Z,26.73
2022-07-27T13:12:59.058Z,26.86
2022-07-27T13:15:27.413Z,27.44
2022-07-27T13:17:55.293Z,26.51
2022-07-27T13:20:23.399Z,26.90
2022-07-27T13:22:51.876Z,27.83
2022-07-27T13:25:19.966Z,28.51
2022-07-27T13:27:49.886Z,28.27
2022-07-27T13:30:19.546Z,27.86
2022-07-27T13:32:47.945Z,28.00
2022-07-27T13:35:16.873Z,27.66
2022-07-27T13:37:45.980Z,27.22
2022-07-27T13:40:15.010Z,27.85
2022-07-27T13:42:42.856Z,27.13
2022-07-27T13:45:12.214Z,26.78
2022-07-27T13:47:42.393Z,27.67
2022-07-27T13:50:18.366Z,29.51
2022-07-27T13:52:47.647Z,30.97
2022-07-27T13:55:16.324Z,31.78
2022-07-27T13:57:44.605Z,33.12
2022-07-27T14:00:13.311Z,33.98
2022-07-27T14:02:42.649Z,37.32
2022-07-27T14:05:12.942Z,35.70
2022-07-27T14:07:42.423Z,35.79
2022-07-27T14:10:30.316Z,35.98
2022-07-27T14:13:08.123Z,34.53
2022-07-27T14:15:53.056Z,35.06
2022-07-27T14:18:25.387Z,33.87
2022-07-27T14:20:53.542Z,33.61
2022-07-27T14:23:21.430Z,34.98
2022-07-27T14:25:49.354Z,35.74
2022-07-27T14:28:17.236Z,37.92
2022-07-27T14:30:45.350Z,38.08
2022-07-27T14:33:13.289Z,38.23
2022-07-27T14:35:42.492Z,37.45
2022-07-27T14:38:11.438Z,36.35
2022-07-27T14:40:40.462Z,38.49
2022-07-27T14:43:09.575Z,37.45
2022-07-27T14:45:44.791Z,36.22
2022-07-27T14:48:21.096Z,36.11
2022-07-27T14:50:54.473Z,36.42
2022-07-27T14:53:22.430Z,35.36
2022-07-27T14:55:50.265Z,34.94
2022-07-27T14:58:18.127Z,37.19
2022-07-27T15:00:46.245Z,37.13
2022-07-27T15:03:15.152Z,35.21
2022-07-27T15:05:50.330Z,36.40
2022-07-27T15:08:20.486Z,35.11
2022-07-27T15:10:48.911Z,36.52
2022-07-27T15:13:17.845Z,36.26
2022-07-27T15:15:48.277Z,37.32
2022-07-27T15:18:18.661Z,37.70
2022-07-27T15:20:46.961Z,36.35
2022-07-27T15:23:14.921Z,36.33
2022-07-27T15:25:44.197Z,36.82
2022-07-27T15:28:12.219Z,37.60
2022-07-27T15:30:40.633Z,36.61
2022-07-27T15:33:08.797Z,35.52
2022-07-27T15:35:36.617Z,36.91
2022-07-27T15:38:04.566Z,36.30
2022-07-27T15:40:38.316Z,36.16
2022-07-27T15:43:10.576Z,36.48
2022-07-27T15:45:39.311Z,37.15
2022-07-27T15:48:08.615Z,37.82
2022-07-27T15:50:36.691Z,37.64
2022-07-27T15:53:05.583Z,36.28
2022-07-27T15:55:33.671Z,37.15
2022-07-27T15:58:01.716Z,36.05
2022-07-27T16:00:35.525Z,37.02
2022-07-27T16:03:05.725Z,36.18
2022-07-27T16:05:34.117Z,37.02
2022-07-27T16:08:01.967Z,37.25
2022-07-27T16:10:29.895Z,37.43
2022-07-27T16:12:58.527Z,35.03
2022-07-27T16:15:40.387Z,30.74
2022-07-27T16:18:11.282Z,28.01
2022-07-27T16:20:39.315Z,27.51
2022-07-27T16:23:17.834Z,26.55
2022-07-27T16:26:03.377Z,25.56
2022-07-27T16:28:33.092Z,25.59
2022-07-27T16:31:01.114Z,24.79
2022-07-27T16:33:30.439Z,24.87
2022-07-27T16:35:58.416Z,25.14
2022-07-27T16:38:26.509Z,24.90
2022-07-27T16:40:54.342Z,24.74
2022-07-27T16:43:22.242Z,24.62
2022-07-27T16:45:56.541Z,24.59
2022-07-27T16:48:24.422Z,24.52
2022-07-27T16:50:53.539Z,24.61
2022-07-27T16:53:21.371Z,24.53
2022-07-27T16:55:49.308Z,24.26
2022-07-27T16:58:17.529Z,24.63
2022-07-27T17:00:45.510Z,24.45
2022-07-27T17:03:13.273Z,24.41
2022-07-27T17:05:41.237Z,24.36
2022-07-27T17:08:11.028Z,24.02
2022-07-27T17:10:39.726Z,23.95
2022-07-27T17:13:13.308Z,24.02
2022-07-27T17:15:41.513Z,23.84
2022-07-27T17:18:09.394Z,23.84
2022-07-27T17:20:37.556Z,23.80
2022-07-27T17:23:05.669Z,23.85
2022-07-27T17:25:35.032Z,23.77
2022-07-27T17:28:03.462Z,23.73
2022-07-27T17:30:36.377Z,23.64
2022-07-27T17:33:06.109Z,23.70
2022-07-27T17:35:35.118Z,23.60
2022-07-27T17:38:06.537Z,23.55
2022-07-27T17:40:36.542Z,23.58
2022-07-27T17:43:04.392Z,23.74
2022-07-27T17:45:32.352Z,23.88
2022-07-27T17:48:00.187Z,23.78
2022-07-27T17:50:28.103Z,23.72
2022-07-27T17:52:57.699Z,23.61
2022-07-27T17:55:25.923Z,23.80
2022-07-27T17:57:55.275Z,23.66
2022-07-27T18:00:23.210Z,23.62
2022-07-27T18:02:51.046Z,23.39
2022-07-27T18:05:18.883Z,23.31
2022-07-27T18:07:46.945Z,23.55
2022-07-27T18:10:36.719Z,23.45
2022-07-27T18:13:08.560Z,23.31
2022-07-27T18:15:50.348Z,23.10
2022-07-27T18:18:20.567Z,22.92
2022-07-27T18:20:51.363Z,22.82
2022-07-27T18:23:19.560Z,22.95
2022-07-27T18:25:47.901Z,23.00
2022-07-27T18:28:18.865Z,22.88
2022-07-27T18:30:48.021Z,22.82
2022-07-27T18:33:16.670Z,22.65
2022-07-27T18:35:45.201Z,22.50
2022-07-27T18:38:14.246Z,22.30
2022-07-27T18:40:46.129Z,22.19
2022-07-27T18:43:14.649Z,22.00
2022-07-27T18:45:44.121Z,21.83
2022-07-27T18:48:12.355Z,21.84
2022-07-27T18:50:41.234Z,21.62
2022-07-27T18:53:10.225Z,21.55
2022-07-27T18:55:38.956Z,21.53
2022-07-27T18:58:07.363Z,21.47
2022-07-27T19:00:35.229Z,21.30
2022-07-27T19:03:04.567Z,21.16
2022-07-27T19:05:41.081Z,20.94
2022-07-27T19:08:13.292Z,20.88
2022-07-27T19:10:42.465Z,20.72
2022-07-27T19:13:10.982Z,20.80
2022-07-27T19:15:39.055Z,20.65
2022-07-27T19:18:09.384Z,20.59
2022-07-27T19:20:37.653Z,20.47
2022-07-27T19:23:05.845Z,20.48
2022-07-27T19:25:34.668Z,20.38
2022-07-27T19:28:03.156Z,20.32
2022-07-27T19:30:31.178Z,20.34
2022-07-27T19:32:59.233Z,20.31
2022-07-27T19:35:28.591Z,20.25
2022-07-27T19:37:56.494Z,20.14
2022-07-27T19:43:12.139Z,20.03
2022-07-27T19:45:40.874Z,19.92
2022-07-27T19:48:09.219Z,19.78
2022-07-27T19:50:38.476Z,19.90
2022-07-27T19:53:06.346Z,19.84
2022-07-27T19:55:34.570Z,19.65
2022-07-27T19:58:02.437Z,19.63
2022-07-27T20:00:30.814Z,19.53
2022-07-27T20:02:58.808Z,19.53
2022-07-27T20:05:26.728Z,19.50
2022-07-27T20:07:55.987Z,19.45
2022-07-27T20:10:25.205Z,19.43
2022-07-27T20:12:53.587Z,19.32
2022-07-27T20:15:22.461Z,19.35
2022-07-27T20:17:50.798Z,19.37
2022-07-27T20:20:18.952Z,19.27
2022-07-27T20:22:46.922Z,19.15
2022-07-27T20:25:16.249Z,19.18
2022-07-27T20:27:44.189Z,19.06
2022-07-27T20:30:16.258Z,19.07
2022-07-27T20:32:44.673Z,19.06
2022-07-27T20:35:12.593Z,19.02
2022-07-27T20:37:41.115Z,18.95
2022-07-27T20:40:11.420Z,18.90
2022-07-27T20:42:41.341Z,18.88
2022-07-27T20:45:11.480Z,18.77
2022-07-27T20:47:39.485Z,18.72
2022-07-27T20:50:09.269Z,18.63
2022-07-27T20:52:37.370Z,18.48
2022-07-27T20:55:06.161Z,18.47
2022-07-27T20:57:34.224Z,18.37
2022-07-27T21:00:04.494Z,18.36
2022-07-27T21:02:32.611Z,18.42
2022-07-27T21:05:00.569Z,18.26
2022-07-27T21:07:28.597Z,18.32
2022-07-27T21:09:56.974Z,18.28
2022-07-27T21:12:24.862Z,18.28
2022-07-27T21:14:52.773Z,18.27
2022-07-27T21:17:21.974Z,18.27
2022-07-27T21:19:53.272Z,18.16
2022-07-27T21:22:21.258Z,18.02
2022-07-27T21:24:49.529Z,18.09
2022-07-27T21:27:20.265Z,18.11
2022-07-27T21:29:49.542Z,17.99
2022-07-27T21:32:17.618Z,18.01
2022-07-27T21:34:46.828Z,17.94
2022-07-27T21:37:14.679Z,17.89
2022-07-27T21:39:45.594Z,17.90
2022-07-27T21:42:13.594Z,17.88
2022-07-27T21:44:41.608Z,17.79
2022-07-27T21:47:13.761Z,17.69
2022-07-27T21:49:42.659Z,17.65
2022-07-27T21:52:12.142Z,17.72
2022-07-27T21:54:40.389Z,17.71
2022-07-27T21:57:08.244Z,17.65
2022-07-27T21:59:36.055Z,17.45
2022-07-27T22:02:04.083Z,17.52
2022-07-27T22:04:32.090Z,17.36
2022-07-27T22:07:00.023Z,17.49
2022-07-27T22:09:29.331Z,17.43
2022-07-27T22:11:57.734Z,17.38
2022-07-27T22:14:25.619Z,17.23
2022-07-27T22:16:54.129Z,17.23
2022-07-27T22:19:22.185Z,17.26
2022-07-27T22:21:50.405Z,17.17
2022-07-27T22:24:18.415Z,17.08
2022-07-27T22:26:49.285Z,16.95
2022-07-27T22:29:20.219Z,16.97
2022-07-27T22:31:48.073Z,16.83
2022-07-27T22:34:16.414Z,16.91
2022-07-27T22:36:45.281Z,16.90
2022-07-27T22:39:13.863Z,16.90
2022-07-27T22:41:41.634Z,16.80
2022-07-27T22:44:11.900Z,16.83
2022-07-27T22:46:39.939Z,16.79
2022-07-27T22:49:09.272Z,16.70
2022-07-27T22:51:50.019Z,16.65
2022-07-27T22:54:21.038Z,16.58
2022-07-27T22:56:48.947Z,16.59
2022-07-27T22:59:18.139Z,16.53
2022-07-27T23:01:48.263Z,16.48
2022-07-27T23:04:18.294Z,16.50
2022-07-27T23:06:46.571Z,16.46
2022-07-27T23:09:15.447Z,16.35
2022-07-27T23:11:43.949Z,16.40
2022-07-27T23:14:12.503Z,16.42
2022-07-27T23:16:43.515Z,16.38
2022-07-27T23:19:30.044Z,16.43
2022-07-27T23:22:01.168Z,16.41
2022-07-27T23:24:29.849Z,16.29
2022-07-27T23:26:57.709Z,16.23
2022-07-27T23:29:25.724Z,16.16
2022-07-27T23:31:54.918Z,16.28
2022-07-27T23:34:23.856Z,16.25
2022-07-27T23:36:51.793Z,16.19
2022-07-27T23:39:19.627Z,16.22
2022-07-27T23:41:49.922Z,16.23
2022-07-27T23:44:18.291Z,16.21
2022-07-27T23:46:46.202Z,16.09
2022-07-27T23:49:15.671Z,16.07
2022-07-27T23:51:43.630Z,16.01
2022-07-27T23:54:11.919Z,16.04
2022-07-27T23:56:40.100Z,15.99
2022-07-27T23:59:07.952Z,15.84
